createdAt,value
2024-02-19T00:00:01.369Z,8.98
2024-02-19T00:01:01.389Z,8.98
2024-02-19T00:02:01.370Z,8.98
2024-02-19T00:03:01.285Z,8.98
2024-02-19T00:04:01.394Z,8.99
2024-02-19T00:05:01.312Z,8.95
2024-02-19T00:06:01.272Z,8.98
2024-02-19T00:07:01.331Z,8.98
2024-02-19T00:08:01.364Z,8.98
2024-02-19T00:09:01.232Z,9.00
2024-02-19T00:10:01.287Z,9.00
2024-02-19T00:11:01.254Z,9.00
2024-02-19T00:12:01.239Z,9.02
2024-02-19T00:13:01.263Z,9.00
2024-02-19T00:14:01.223Z,9.00
2024-02-19T00:15:01.172Z,8.99
2024-02-19T00:16:01.183Z,8.99
2024-02-19T00:17:01.145Z,8.99
2024-02-19T00:18:01.217Z,8.99
2024-02-19T00:19:01.230Z,9.00
2024-02-19T00:20:01.190Z,9.00
2024-02-19T00:21:01.118Z,9.00
2024-02-19T00:22:01.201Z,9.02
2024-02-19T00:23:01.084Z,9.00
2024-02-19T00:24:01.065Z,9.00
2024-02-19T00:25:01.177Z,9.02
2024-02-19T00:26:01.043Z,9.03
2024-02-19T00:27:01.043Z,9.00
2024-02-19T00:28:01.146Z,8.99
2024-02-19T00:29:01.020Z,8.98
2024-02-19T00:30:01.017Z,8.99
2024-02-19T00:31:01.040Z,8.99
2024-02-19T00:32:00.978Z,8.99
2024-02-19T00:33:01.157Z,9.00
2024-02-19T00:34:01.209Z,8.98
2024-02-19T00:35:00.953Z,9.00
2024-02-19T00:36:00.949Z,9.00
2024-02-19T00:37:00.951Z,9.02
2024-02-19T00:38:00.905Z,9.03
2024-02-19T00:39:00.897Z,9.05
2024-02-19T00:40:00.911Z,9.08
2024-02-19T00:41:00.874Z,9.06
2024-02-19T00:42:00.881Z,9.05
2024-02-19T00:43:00.900Z,9.03
2024-02-19T00:44:00.840Z,9.06
2024-02-19T00:45:00.838Z,9.05
2024-02-19T00:46:00.858Z,9.06
2024-02-19T00:47:00.818Z,9.05
2024-02-19T00:48:00.886Z,9.06
2024-02-19T00:49:00.889Z,9.06
2024-02-19T00:50:01.172Z,9.08
2024-02-19T00:51:00.758Z,9.06
2024-02-19T00:52:00.797Z,9.06
2024-02-19T00:53:00.751Z,9.08
2024-02-19T00:54:00.747Z,9.06
2024-02-19T00:55:00.821Z,9.06
2024-02-19T00:56:00.722Z,9.10
2024-02-19T00:57:00.693Z,9.08
2024-02-19T00:58:00.779Z,9.14
2024-02-19T00:59:00.669Z,9.15
2024-02-19T01:00:00.692Z,9.14
2024-02-19T01:01:00.847Z,9.14
2024-02-19T01:02:00.775Z,9.14
2024-02-19T01:03:00.633Z,9.15
2024-02-19T01:04:00.691Z,9.11
2024-02-19T01:05:01.057Z,9.15
2024-02-19T01:06:00.617Z,9.14
2024-02-19T01:07:00.640Z,9.11
2024-02-19T01:08:00.587Z,9.11
2024-02-19T01:09:00.566Z,9.14
2024-02-19T01:10:00.627Z,9.11
2024-02-19T01:11:00.632Z,9.11
2024-02-19T01:12:00.535Z,9.11
2024-02-19T01:13:00.597Z,9.14
2024-02-19T03:05:51.260Z,9.08
2024-02-19T03:06:41.084Z,9.05
2024-02-19T03:07:40.866Z,9.05
2024-02-19T03:08:40.291Z,9.06
2024-02-19T03:09:39.987Z,9.06
2024-02-19T03:10:39.870Z,9.06
2024-02-19T03:11:40.813Z,9.06
2024-02-19T03:12:41.451Z,9.05
2024-02-19T03:13:39.986Z,9.06
2024-02-19T03:14:39.862Z,9.06
2024-02-19T03:15:39.858Z,9.03
2024-02-19T03:16:40.072Z,9.05
2024-02-19T03:17:40.754Z,9.05
2024-02-19T03:18:40.064Z,9.03
2024-02-19T03:19:40.135Z,9.05
2024-02-19T03:20:39.808Z,9.05
2024-02-19T03:21:43.626Z,9.02
2024-02-19T03:22:40.237Z,9.00
2024-02-19T03:23:41.446Z,9.00
2024-02-19T03:24:40.344Z,9.00
2024-02-19T03:25:44.799Z,9.02
2024-02-19T03:26:41.694Z,9.02
2024-02-19T03:27:41.540Z,9.02
2024-02-19T03:30:19.600Z,9.02
2024-02-19T03:30:31.511Z,8.99
2024-02-19T03:31:26.354Z,8.99
2024-02-19T03:32:28.852Z,8.99
2024-02-19T03:33:27.158Z,8.99
2024-02-19T03:34:26.968Z,8.96
2024-02-19T03:35:36.708Z,8.98
2024-02-19T03:36:28.761Z,8.99
2024-02-19T03:37:28.740Z,8.99
2024-02-19T03:38:26.412Z,9.00
2024-02-19T03:39:30.166Z,9.00
2024-02-19T03:40:26.394Z,9.02
2024-02-19T03:41:25.757Z,9.02
2024-02-19T03:42:25.766Z,9.03
2024-02-19T03:43:30.975Z,9.03
2024-02-19T03:44:25.656Z,9.06
2024-02-19T06:15:43.248Z,8.20
2024-02-19T06:16:30.454Z,8.20
2024-02-19T06:45:03.382Z,7.84
2024-02-19T06:49:05.802Z,7.84
2024-02-19T06:49:12.454Z,7.80
2024-02-19T06:50:11.806Z,7.80
2024-02-19T06:51:11.684Z,7.80
2024-02-19T06:52:11.726Z,7.84
2024-02-19T06:53:11.688Z,7.90
2024-02-19T06:54:11.669Z,7.91
2024-02-19T06:55:11.729Z,7.93
2024-02-19T06:56:11.673Z,7.93
2024-02-19T06:57:11.626Z,7.96
2024-02-19T06:58:11.670Z,7.96
2024-02-19T06:59:11.622Z,7.94
2024-02-19T07:00:11.871Z,7.94
2024-02-19T07:01:11.676Z,7.91
2024-02-19T07:02:11.638Z,7.93
2024-02-19T07:03:11.676Z,7.93
2024-02-19T07:14:42.749Z,7.91
2024-02-19T07:16:53.122Z,7.90
2024-02-19T07:17:54.107Z,7.91
2024-02-19T07:18:54.246Z,7.90
2024-02-19T07:19:54.249Z,7.93
2024-02-19T07:20:54.067Z,7.96
2024-02-19T07:21:54.063Z,7.98
2024-02-19T07:22:54.041Z,7.96
2024-02-19T07:23:54.047Z,7.96
2024-02-19T07:25:02.972Z,7.97
2024-02-19T07:25:56.766Z,7.98
2024-02-19T07:26:54.017Z,8.02
2024-02-19T07:27:53.998Z,8.04
2024-02-19T07:28:53.963Z,8.01
2024-02-19T07:29:53.977Z,7.98
2024-02-19T07:30:53.972Z,7.98
2024-02-19T07:31:53.918Z,7.98
2024-02-19T07:32:54.037Z,7.94
2024-02-19T07:33:53.965Z,7.90
2024-02-19T07:34:53.921Z,7.90
2024-02-19T07:35:53.916Z,7.87
2024-02-19T07:36:54.117Z,7.84
2024-02-19T07:37:53.864Z,7.80
2024-02-19T07:38:53.858Z,7.80
2024-02-19T07:39:53.867Z,7.83
2024-02-19T07:40:53.853Z,7.80
2024-02-19T07:41:53.812Z,7.79
2024-02-19T07:42:53.882Z,7.79
2024-02-19T07:43:53.821Z,7.78
2024-02-19T07:44:53.789Z,7.78
2024-02-19T07:45:53.837Z,7.76
2024-02-19T07:46:53.815Z,7.78
2024-02-19T07:47:53.845Z,7.75
2024-02-19T07:48:53.914Z,7.76
2024-02-19T07:49:53.775Z,7.78
2024-02-19T07:50:53.759Z,7.78
2024-02-19T07:51:53.757Z,7.78
2024-02-19T07:52:53.746Z,7.79
2024-02-19T07:53:53.695Z,7.80
2024-02-19T07:54:53.747Z,7.79
2024-02-19T07:55:53.675Z,7.83
2024-02-19T07:56:53.658Z,7.83
2024-02-19T07:57:53.715Z,7.79
2024-02-19T07:58:53.639Z,7.79
2024-02-19T07:59:53.622Z,7.78
2024-02-19T08:00:53.684Z,7.80
2024-02-19T08:01:53.720Z,7.80
2024-02-19T08:02:53.615Z,7.75
2024-02-19T08:03:53.696Z,7.76
2024-02-19T08:04:53.801Z,7.78
2024-02-19T08:05:53.603Z,7.76
2024-02-19T08:06:55.166Z,7.75
2024-02-19T08:07:53.594Z,7.73
2024-02-19T08:08:53.549Z,7.72
2024-02-19T08:09:53.550Z,7.73
2024-02-19T08:10:53.537Z,7.72
2024-02-19T08:11:53.582Z,7.69
2024-02-19T08:12:53.642Z,7.68
2024-02-19T08:13:53.644Z,7.70
2024-02-19T08:14:53.483Z,7.68
2024-02-19T08:15:53.519Z,7.69
2024-02-19T08:16:53.453Z,7.66
2024-02-19T08:17:53.575Z,7.66
2024-02-19T08:18:53.605Z,7.68
2024-02-19T08:19:53.460Z,7.70
2024-02-19T08:20:53.432Z,7.72
2024-02-19T08:21:53.450Z,7.72
2024-02-19T08:22:53.387Z,7.70
2024-02-19T08:23:53.379Z,7.70
2024-02-19T08:24:53.419Z,7.69
2024-02-19T08:25:53.385Z,7.70
2024-02-19T08:26:53.360Z,7.72
2024-02-19T08:27:55.406Z,7.73
2024-02-19T08:28:53.324Z,7.75
2024-02-19T08:29:53.324Z,7.72
2024-02-19T08:30:53.359Z,7.72
2024-02-19T08:31:53.296Z,7.73
2024-02-19T08:32:53.315Z,7.76
2024-02-19T08:33:53.452Z,7.79
2024-02-19T08:34:53.342Z,7.80
2024-02-19T08:35:53.269Z,7.83
2024-02-19T08:36:53.335Z,7.83
2024-02-19T08:37:53.239Z,7.79
2024-02-19T08:38:53.322Z,7.83
2024-02-19T08:39:53.248Z,7.86
2024-02-19T08:40:53.215Z,7.88
2024-02-19T08:41:53.181Z,7.87
2024-02-19T08:42:53.261Z,7.84
2024-02-19T08:43:53.162Z,7.79
2024-02-19T08:44:53.175Z,7.79
2024-02-19T08:45:53.217Z,7.76
2024-02-19T08:46:53.133Z,7.75
2024-02-19T08:47:53.204Z,7.78
2024-02-19T08:48:53.213Z,7.79
2024-02-19T08:49:53.173Z,7.83
2024-02-19T08:50:53.202Z,7.84
2024-02-19T08:51:53.107Z,7.84
2024-02-19T08:52:53.063Z,7.84
2024-02-19T08:53:59.029Z,7.78
2024-02-19T08:54:53.090Z,7.76
2024-02-19T08:55:53.067Z,7.75
2024-02-19T08:56:53.028Z,7.76
2024-02-19T08:57:53.061Z,7.75
2024-02-19T08:58:53.031Z,7.75
2024-02-19T08:59:53.009Z,7.76
2024-02-19T09:00:53.094Z,7.75
2024-02-19T09:01:53.084Z,7.78
2024-02-19T09:02:52.993Z,7.80
2024-02-19T09:03:53.040Z,7.84
2024-02-19T09:04:53.049Z,7.86
2024-02-19T09:05:52.989Z,7.88
2024-02-19T09:06:53.122Z,7.87
2024-02-19T09:07:52.931Z,7.88
2024-02-19T09:08:52.933Z,7.93
2024-02-19T09:09:52.957Z,7.96
2024-02-19T09:10:52.904Z,7.93
2024-02-19T09:11:52.912Z,7.93
2024-02-19T09:12:52.902Z,7.93
2024-02-19T09:13:52.868Z,7.94
2024-02-19T09:14:52.848Z,7.93
2024-02-19T09:15:52.874Z,7.94
2024-02-19T09:16:52.813Z,7.97
2024-02-19T09:17:52.880Z,7.98
2024-02-19T09:18:52.875Z,8.01
2024-02-19T09:19:52.866Z,8.02
2024-02-19T09:20:52.805Z,8.04
2024-02-19T09:21:52.835Z,8.01
2024-02-19T09:22:52.745Z,8.05
2024-02-19T09:23:52.725Z,8.02
2024-02-19T09:24:52.770Z,7.98
2024-02-19T09:25:52.711Z,7.97
2024-02-19T09:26:52.760Z,7.94
2024-02-19T09:27:52.691Z,7.94
2024-02-19T09:28:52.793Z,7.94
2024-02-19T09:29:52.678Z,7.94
2024-02-19T09:30:52.756Z,7.90
2024-02-19T09:31:52.670Z,7.88
2024-02-19T09:32:52.655Z,7.90
2024-02-19T09:33:52.708Z,7.91
2024-02-19T09:34:52.699Z,7.91
2024-02-19T09:35:52.603Z,7.94
2024-02-19T09:36:52.649Z,7.97
2024-02-19T09:37:52.593Z,7.98
2024-02-19T09:38:52.648Z,8.06
2024-02-19T09:39:52.597Z,8.05
2024-02-19T09:40:52.586Z,8.08
2024-02-19T09:41:52.570Z,8.08
2024-02-19T09:42:52.575Z,8.04
2024-02-19T09:43:52.528Z,8.04
2024-02-19T09:44:52.526Z,7.98
2024-02-19T09:45:52.563Z,7.94
2024-02-19T09:46:52.544Z,7.90
2024-02-19T09:47:52.578Z,7.90
2024-02-19T09:48:52.807Z,7.88
2024-02-19T09:49:52.629Z,7.90
2024-02-19T09:50:52.478Z,7.87
2024-02-19T09:51:52.477Z,7.93
2024-02-19T09:52:52.433Z,8.01
2024-02-19T09:53:52.432Z,7.98
2024-02-19T09:54:52.465Z,7.97
2024-02-19T09:55:52.442Z,8.02
2024-02-19T09:56:52.448Z,8.04
2024-02-19T09:57:52.458Z,8.04
2024-02-19T09:58:52.405Z,8.01
2024-02-19T09:59:52.367Z,8.04
2024-02-19T10:00:52.407Z,8.01
2024-02-19T10:01:52.615Z,7.97
2024-02-19T10:02:52.346Z,7.93
2024-02-19T10:03:52.364Z,7.88
2024-02-19T10:04:52.435Z,7.87
2024-02-19T10:05:52.355Z,7.78
2024-02-19T10:06:52.441Z,7.76
2024-02-19T10:07:52.331Z,7.72
2024-02-19T10:08:52.266Z,7.69
2024-02-19T10:09:52.292Z,7.62
2024-02-19T10:10:52.237Z,7.59
2024-02-19T10:11:52.246Z,7.53
2024-02-19T10:12:52.280Z,7.54
2024-02-19T10:13:52.206Z,7.50
2024-02-19T10:14:52.218Z,7.49
2024-02-19T10:15:52.203Z,7.44
2024-02-19T10:16:52.190Z,7.38
2024-02-19T10:17:52.215Z,7.41
2024-02-19T10:18:52.263Z,7.38
2024-02-19T10:19:52.224Z,7.39
2024-02-19T10:20:52.271Z,7.36
2024-02-19T10:21:52.204Z,7.36
2024-02-19T10:22:52.116Z,7.32
2024-02-19T10:23:52.118Z,7.31
2024-02-19T10:24:52.155Z,7.34
2024-02-19T10:25:52.099Z,7.32
2024-02-19T10:26:52.085Z,7.34
2024-02-19T10:27:52.067Z,7.34
2024-02-19T10:28:52.084Z,7.39
2024-02-19T10:29:52.027Z,7.39
2024-02-19T10:30:52.074Z,7.39
2024-02-19T10:31:52.016Z,7.44
2024-02-19T10:32:52.086Z,7.46
2024-02-19T10:33:52.124Z,7.42
2024-02-19T10:34:52.043Z,7.47
2024-02-19T10:35:51.979Z,7.49
2024-02-19T10:36:52.035Z,7.52
2024-02-19T10:37:51.953Z,7.50
2024-02-19T10:38:51.942Z,7.50
2024-02-19T10:39:51.974Z,7.54
2024-02-19T10:40:51.955Z,7.53
2024-02-19T10:41:51.941Z,7.53
2024-02-19T10:42:51.933Z,7.54
2024-02-19T10:43:51.902Z,7.53
2024-02-19T10:44:51.879Z,7.56
2024-02-19T10:45:51.879Z,7.57
2024-02-19T10:46:51.864Z,7.56
2024-02-19T10:47:51.974Z,7.59
2024-02-19T10:48:51.888Z,7.60
2024-02-19T10:49:51.837Z,7.59
2024-02-19T10:50:51.810Z,7.59
2024-02-19T10:51:51.961Z,7.59
2024-02-19T10:52:51.791Z,7.56
2024-02-19T10:53:51.770Z,7.54
2024-02-19T10:54:58.715Z,7.57
2024-02-19T10:55:55.875Z,7.59
2024-02-19T10:56:51.868Z,7.64
2024-02-19T10:57:51.783Z,7.66
2024-02-19T10:58:51.737Z,7.68
2024-02-19T10:59:51.719Z,7.68
2024-02-19T11:00:51.763Z,7.68
2024-02-19T11:01:51.949Z,7.66
2024-02-19T11:02:51.701Z,7.62
2024-02-19T11:03:51.733Z,7.62
2024-02-19T11:04:51.916Z,7.62
2024-02-19T11:05:51.740Z,7.66
2024-02-19T11:06:51.704Z,7.64
2024-02-19T11:07:51.647Z,7.66
2024-02-19T11:08:51.640Z,7.69
2024-02-19T11:09:51.626Z,7.68
2024-02-19T11:10:51.812Z,7.64
2024-02-19T11:11:51.684Z,7.66
2024-02-19T11:12:51.629Z,7.69
2024-02-19T11:13:51.563Z,7.75
2024-02-19T11:14:51.553Z,7.79
2024-02-19T11:15:51.564Z,7.87
2024-02-19T11:16:51.541Z,7.91
2024-02-19T11:17:51.574Z,7.94
2024-02-19T11:18:53.965Z,8.01
2024-02-19T11:19:51.542Z,8.02
2024-02-19T11:20:51.500Z,8.08
2024-02-19T11:21:51.557Z,8.06
2024-02-19T11:22:51.483Z,8.04
2024-02-19T11:23:51.482Z,8.06
2024-02-19T11:24:51.463Z,8.09
2024-02-19T11:25:51.423Z,8.09
2024-02-19T11:26:51.434Z,8.12
2024-02-19T11:27:51.482Z,8.08
2024-02-19T11:28:51.407Z,8.09
2024-02-19T11:29:51.424Z,8.09
2024-02-19T11:30:51.395Z,8.06
2024-02-19T11:31:51.400Z,8.06
2024-02-19T11:32:51.424Z,8.11
2024-02-19T11:33:51.397Z,8.11
2024-02-19T11:34:52.444Z,8.12
2024-02-19T11:35:51.433Z,8.12
2024-02-19T11:36:51.362Z,8.13
2024-02-19T11:37:51.324Z,8.15
2024-02-19T11:38:51.304Z,8.18
2024-02-19T11:39:51.359Z,8.18
2024-02-19T11:40:51.289Z,8.21
2024-02-19T11:41:51.274Z,8.21
2024-02-19T11:42:51.332Z,8.18
2024-02-19T11:43:51.244Z,8.18
2024-02-19T11:44:51.237Z,8.18
2024-02-19T11:45:51.253Z,8.18
2024-02-19T11:46:51.219Z,8.18
2024-02-19T11:47:51.267Z,8.16
2024-02-19T11:48:51.287Z,8.13
2024-02-19T11:49:51.238Z,8.13
2024-02-19T11:50:51.168Z,8.15
2024-02-19T11:51:57.689Z,8.15
2024-02-19T11:52:51.203Z,8.20
2024-02-19T11:53:51.141Z,8.23
2024-02-19T11:54:51.196Z,8.26
2024-02-19T11:55:51.118Z,8.20
2024-02-19T11:56:51.103Z,8.20
2024-02-19T11:57:51.120Z,8.21
2024-02-19T11:58:51.102Z,8.29
2024-02-19T11:59:51.074Z,8.26
2024-02-19T12:00:51.130Z,8.26
2024-02-19T12:01:51.145Z,8.27
2024-02-19T12:02:51.072Z,8.27
2024-02-19T12:03:51.045Z,8.31
2024-02-19T12:04:51.036Z,8.34
2024-02-19T12:05:51.079Z,8.36
2024-02-19T12:06:51.038Z,8.38
2024-02-19T12:07:51.156Z,8.41
2024-02-19T12:08:50.995Z,8.41
2024-02-19T12:09:51.007Z,8.41
2024-02-19T12:10:50.991Z,8.41
2024-02-19T12:11:50.952Z,8.45
2024-02-19T12:12:51.008Z,8.45
2024-02-19T12:13:50.927Z,8.45
2024-02-19T12:14:50.912Z,8.47
2024-02-19T12:15:50.925Z,8.44
2024-02-19T12:16:50.892Z,8.47
2024-02-19T12:17:51.026Z,8.49
2024-02-19T12:18:50.951Z,8.51
2024-02-19T12:19:53.346Z,8.51
2024-02-19T12:20:50.849Z,8.54
2024-02-19T12:21:51.106Z,8.57
2024-02-19T12:22:50.831Z,8.59
2024-02-19T12:23:50.845Z,8.60
2024-02-19T12:24:50.821Z,8.63
2024-02-19T12:25:50.797Z,8.63
2024-02-19T12:26:50.799Z,8.64
2024-02-19T12:27:50.818Z,8.67
2024-02-19T12:28:50.781Z,8.70
2024-02-19T12:29:50.760Z,8.73
2024-02-19T12:30:50.782Z,8.73
2024-02-19T12:31:50.743Z,8.80
2024-02-19T12:32:50.803Z,8.78
2024-02-19T12:33:50.899Z,8.78
2024-02-19T12:34:51.030Z,8.78
2024-02-19T12:35:50.843Z,8.78
2024-02-19T12:36:50.771Z,8.77
2024-02-19T12:37:50.721Z,8.78
2024-02-19T12:38:50.677Z,8.77
2024-02-19T12:39:50.692Z,8.78
2024-02-19T12:40:50.694Z,8.78
2024-02-19T12:41:50.663Z,8.78
2024-02-19T12:42:50.628Z,8.80
2024-02-19T12:43:50.629Z,8.82
2024-02-19T12:44:50.597Z,8.78
2024-02-19T12:45:50.612Z,8.81
2024-02-19T12:46:50.576Z,8.85
2024-02-19T12:47:50.646Z,8.88
2024-02-19T12:48:50.632Z,8.87
2024-02-19T12:49:50.611Z,8.88
2024-02-19T12:50:50.532Z,8.88
2024-02-19T12:51:50.545Z,8.88
2024-02-19T12:52:50.580Z,8.91
2024-02-19T12:53:50.514Z,8.88
2024-02-19T12:54:50.557Z,8.90
2024-02-19T12:55:50.501Z,8.93
2024-02-19T12:56:50.477Z,8.96
2024-02-19T12:57:50.514Z,8.99
2024-02-19T12:58:50.461Z,9.02
2024-02-19T12:59:50.445Z,9.08
2024-02-19T13:00:50.521Z,9.08
2024-02-19T13:01:50.499Z,9.14
2024-02-19T13:02:50.476Z,9.15
2024-02-19T13:03:50.422Z,9.16
2024-02-19T13:04:50.660Z,9.21
2024-02-19T13:05:50.478Z,9.24
2024-02-19T13:06:50.474Z,9.28
2024-02-19T13:07:50.397Z,9.28
2024-02-19T13:08:50.378Z,9.26
2024-02-19T13:09:50.369Z,9.24
2024-02-19T13:10:50.312Z,9.21
2024-02-19T13:11:50.361Z,9.19
2024-02-19T13:12:50.324Z,9.16
2024-02-19T13:13:50.319Z,9.10
2024-02-19T13:14:50.272Z,9.10
2024-02-19T15:09:56.050Z,9.52
2024-02-19T15:13:01.854Z,9.52
2024-02-19T15:14:01.692Z,9.49
2024-02-19T15:15:01.866Z,9.51
2024-02-19T15:16:02.328Z,9.52
2024-02-19T15:17:01.425Z,9.51
2024-02-19T15:18:02.883Z,9.51
2024-02-19T15:19:02.455Z,9.52
2024-02-19T15:20:05.669Z,9.52
2024-02-19T15:21:01.848Z,9.52
2024-02-19T15:22:00.982Z,9.54
2024-02-19T15:23:03.079Z,9.55
2024-02-19T15:24:12.200Z,9.55
2024-02-19T15:25:01.262Z,9.55
2024-02-19T15:26:02.914Z,9.57
2024-02-19T15:27:23.222Z,9.58
2024-02-19T15:28:03.185Z,9.61
2024-02-19T15:29:02.990Z,9.61
2024-02-19T15:30:03.361Z,9.59
2024-02-19T15:31:03.067Z,9.61
2024-02-19T15:32:00.810Z,9.62
2024-02-19T15:33:01.184Z,9.62
2024-02-19T15:34:04.069Z,9.62
2024-02-19T15:35:04.282Z,9.65
2024-02-19T15:36:01.321Z,9.65
2024-02-19T15:37:01.382Z,9.69
2024-02-19T15:38:01.153Z,9.69
2024-02-19T15:39:01.983Z,9.70
2024-02-19T15:40:01.748Z,9.69
2024-02-19T15:41:00.411Z,9.67
2024-02-19T15:42:03.006Z,9.69
2024-02-19T15:43:04.339Z,9.67
2024-02-19T15:44:01.013Z,9.67
2024-02-19T15:45:13.685Z,9.67
2024-02-19T15:46:01.389Z,9.69
2024-02-19T15:47:00.641Z,9.67
2024-02-19T15:48:01.217Z,9.65
2024-02-19T15:49:01.090Z,9.65
2024-02-19T15:50:02.053Z,9.65
2024-02-19T15:51:10.773Z,9.67
2024-02-19T15:52:01.265Z,9.67
2024-02-19T15:53:05.730Z,9.70
2024-02-19T15:54:02.178Z,9.70
2024-02-19T15:55:03.206Z,9.72
2024-02-19T15:56:11.292Z,9.72
2024-02-19T15:57:01.863Z,9.70
2024-02-19T15:58:01.702Z,9.69
2024-02-19T15:59:00.843Z,9.67
2024-02-19T16:00:02.056Z,9.64
2024-02-19T16:01:04.519Z,9.62
2024-02-19T16:02:02.125Z,9.58
2024-02-19T16:03:04.398Z,9.54
2024-02-19T16:04:03.227Z,9.52
2024-02-19T16:05:01.810Z,9.47
2024-02-19T16:06:05.602Z,9.43
2024-02-19T16:07:01.026Z,9.37
2024-02-19T16:08:00.993Z,9.36
2024-02-19T16:09:04.337Z,9.34
2024-02-19T16:10:01.941Z,9.33
2024-02-19T16:11:02.825Z,9.33
2024-02-19T16:12:02.149Z,9.29
2024-02-19T16:13:02.734Z,9.29
2024-02-19T16:14:01.349Z,9.26
2024-02-19T16:15:01.265Z,9.28
2024-02-19T16:16:01.721Z,9.28
2024-02-19T16:17:04.555Z,9.25
2024-02-19T16:18:06.098Z,9.24
2024-02-19T16:19:00.306Z,9.25
2024-02-19T16:20:00.649Z,9.24
2024-02-19T16:21:01.141Z,9.22
2024-02-19T16:22:07.494Z,9.21
2024-02-19T16:23:00.984Z,9.21
2024-02-19T16:24:03.456Z,9.19
2024-02-19T16:25:03.212Z,9.19
2024-02-19T16:26:03.089Z,9.18
2024-02-19T16:27:00.932Z,9.18
2024-02-19T16:28:00.678Z,9.21
2024-02-19T16:29:02.343Z,9.22
2024-02-19T16:30:01.110Z,9.19
2024-02-19T16:31:01.388Z,9.19
2024-02-19T16:32:00.066Z,9.19
2024-02-19T16:33:00.090Z,9.19
2024-02-19T16:34:03.908Z,9.19
2024-02-19T16:35:00.972Z,9.19
2024-02-19T16:36:10.536Z,9.24
2024-02-19T16:37:01.627Z,9.24
2024-02-19T16:38:02.352Z,9.22
2024-02-19T16:39:02.385Z,9.22
2024-02-19T16:39:59.402Z,9.22
2024-02-19T16:41:01.011Z,9.24
2024-02-19T16:42:01.256Z,9.24
2024-02-19T16:42:59.840Z,9.24
2024-02-19T16:44:00.361Z,9.24
2024-02-19T16:44:59.537Z,9.24
2024-02-19T16:46:01.622Z,9.22
2024-02-19T16:47:00.404Z,9.24
2024-02-19T16:48:01.320Z,9.24
2024-02-19T16:49:00.272Z,9.21
2024-02-19T16:50:01.105Z,9.24
2024-02-19T16:51:00.085Z,9.22
2024-02-19T16:52:00.024Z,9.22
2024-02-19T16:52:59.737Z,9.24
2024-02-19T16:53:59.972Z,9.24
2024-02-19T16:54:59.874Z,9.24
2024-02-19T16:56:00.044Z,9.24
2024-02-19T16:57:02.157Z,9.22
2024-02-19T16:58:00.278Z,9.24
2024-02-19T16:58:59.974Z,9.22
2024-02-19T17:00:01.416Z,9.21
2024-02-19T17:01:00.047Z,9.21
2024-02-19T17:01:59.916Z,9.19
2024-02-19T17:02:59.302Z,9.18
2024-02-19T17:03:59.164Z,9.19
2024-02-19T17:27:12.661Z,8.98
2024-02-19T17:28:42.440Z,8.93
2024-02-19T19:16:45.305Z,8.84
2024-02-19T19:17:46.398Z,8.85
2024-02-19T19:18:46.266Z,8.84
2024-02-19T19:19:46.148Z,8.82
2024-02-19T19:20:46.059Z,8.84
2024-02-19T19:21:46.168Z,8.82
2024-02-19T19:22:46.050Z,8.84
2024-02-19T19:23:46.503Z,8.82
2024-02-19T19:24:46.015Z,8.82
2024-02-19T19:25:45.968Z,8.82
2024-02-19T19:26:45.962Z,8.81
2024-02-19T19:27:45.992Z,8.81
2024-02-19T19:28:45.965Z,8.82
2024-02-19T19:29:45.915Z,8.82
2024-02-19T19:30:45.952Z,8.82
2024-02-19T19:31:45.923Z,8.84
2024-02-19T19:32:45.940Z,8.85
2024-02-19T19:33:46.009Z,8.85
2024-02-19T19:34:45.992Z,8.82
2024-02-19T19:35:45.868Z,8.84
2024-02-19T19:36:45.878Z,8.81
2024-02-19T19:37:45.881Z,8.80
2024-02-19T19:38:45.839Z,8.81
2024-02-19T19:39:45.840Z,8.84
2024-02-19T19:40:45.815Z,8.84
2024-02-19T19:41:45.798Z,8.88
2024-02-19T19:42:45.832Z,8.88
2024-02-19T19:43:45.793Z,8.90
2024-02-19T19:44:45.817Z,8.90
2024-02-19T19:45:45.888Z,8.88
2024-02-19T19:46:45.803Z,8.90
2024-02-19T19:47:45.793Z,8.88
2024-02-19T19:48:45.878Z,8.88
2024-02-19T19:49:45.856Z,8.90
2024-02-19T19:50:45.734Z,8.88
2024-02-19T19:51:45.744Z,8.88
2024-02-19T19:52:45.743Z,8.91
2024-02-19T19:53:45.739Z,8.91
2024-02-19T19:54:45.783Z,8.90
2024-02-19T19:55:45.698Z,8.90
2024-02-19T19:56:45.633Z,8.88
2024-02-19T19:57:45.699Z,8.88
2024-02-19T19:58:45.780Z,8.85
2024-02-19T20:04:54.947Z,8.90
2024-02-19T20:05:55.864Z,8.90
2024-02-19T20:06:55.941Z,8.90
2024-02-19T20:07:55.781Z,8.90
2024-02-19T20:08:55.761Z,8.90
2024-02-19T20:09:55.723Z,8.90
2024-02-19T20:10:55.735Z,8.91
2024-02-19T20:11:55.621Z,8.90
2024-02-19T20:12:55.702Z,8.90
2024-02-19T20:13:55.630Z,8.90
2024-02-19T20:14:57.162Z,8.90
2024-02-19T20:15:55.655Z,8.90
2024-02-19T20:16:55.583Z,8.87
2024-02-19T20:17:55.553Z,8.88
2024-02-19T20:18:55.701Z,8.90
2024-02-19T20:19:55.628Z,8.91
2024-02-19T20:20:55.549Z,8.95
2024-02-19T20:21:55.546Z,8.95
2024-02-19T20:22:55.489Z,8.96
2024-02-19T20:23:55.519Z,8.98
2024-02-19T20:24:55.530Z,8.98
2024-02-19T20:25:55.475Z,8.99
2024-02-19T20:26:55.456Z,8.99
2024-02-19T20:27:55.503Z,8.99
2024-02-19T20:28:55.499Z,8.96
2024-02-19T20:29:55.474Z,8.93
2024-02-19T20:30:55.502Z,8.95
2024-02-19T20:31:55.467Z,8.95
2024-02-19T20:32:55.542Z,8.95
2024-02-19T20:33:55.558Z,8.96
2024-02-19T20:34:55.457Z,8.99
2024-02-19T20:35:55.507Z,8.98
2024-02-19T20:36:55.495Z,8.98
2024-02-19T20:37:55.333Z,8.98
2024-02-19T20:38:55.363Z,8.98
2024-02-19T20:39:55.371Z,8.96
2024-02-19T20:40:55.441Z,8.96
2024-02-19T20:41:55.294Z,8.98
2024-02-19T20:42:56.878Z,8.98
2024-02-19T20:43:55.376Z,8.96
2024-02-19T20:44:55.271Z,8.96
2024-02-19T20:45:55.337Z,8.96
2024-02-19T20:46:55.346Z,8.96
2024-02-19T20:47:55.473Z,8.98
2024-02-19T20:48:55.319Z,8.96
2024-02-19T20:49:55.354Z,8.99
2024-02-19T20:50:55.207Z,8.99
2024-02-19T20:51:55.238Z,8.98
2024-02-19T20:52:55.196Z,8.98
2024-02-19T20:53:55.197Z,8.96
2024-02-19T20:54:55.227Z,8.98
2024-02-19T20:55:55.178Z,8.99
2024-02-19T20:56:55.123Z,9.02
2024-02-19T20:57:55.358Z,9.00
2024-02-19T20:58:55.096Z,9.00
2024-02-19T20:59:55.352Z,9.02
2024-02-19T21:00:55.249Z,9.03
2024-02-19T21:01:55.216Z,9.03
2024-02-19T21:02:55.080Z,9.03
2024-02-19T21:03:55.243Z,9.02
2024-02-19T21:04:55.126Z,9.02
2024-02-19T21:05:55.023Z,9.02
2024-02-19T21:06:55.127Z,9.02
2024-02-19T21:07:55.136Z,9.02
2024-02-19T21:08:55.024Z,9.00
2024-02-19T21:09:55.032Z,9.02
2024-02-19T21:10:55.009Z,9.02
2024-02-19T21:11:55.027Z,8.99
2024-02-19T21:12:54.961Z,8.99
2024-02-19T21:13:54.977Z,8.98
2024-02-19T21:14:54.959Z,8.99
2024-02-19T21:15:55.981Z,8.96
2024-02-19T21:16:54.960Z,8.96
2024-02-19T21:17:54.937Z,8.96
2024-02-19T21:18:55.019Z,8.98
2024-02-19T21:19:54.999Z,8.96
2024-02-19T21:20:54.954Z,8.98
2024-02-19T21:21:54.928Z,8.96
2024-02-19T21:22:54.957Z,8.99
2024-02-19T21:23:54.943Z,8.99
2024-02-19T21:24:54.909Z,9.00
2024-02-19T21:25:54.833Z,9.02
2024-02-19T21:26:56.427Z,9.03
2024-02-19T21:27:54.853Z,9.05
2024-02-19T21:28:54.817Z,9.05
2024-02-19T21:29:54.796Z,9.05
2024-02-19T21:30:54.758Z,9.05
2024-02-19T21:31:54.768Z,9.06
2024-02-19T21:32:54.783Z,9.06
2024-02-19T21:33:54.976Z,9.08
2024-02-19T21:34:54.876Z,9.08
2024-02-19T21:35:54.705Z,9.08
2024-02-19T21:36:54.749Z,9.11
2024-02-19T21:37:54.684Z,9.14
2024-02-19T21:38:54.707Z,9.11
2024-02-19T21:39:54.813Z,9.11
2024-02-19T21:40:54.680Z,9.14
2024-02-19T21:41:54.629Z,9.14
2024-02-19T21:42:54.683Z,9.11
2024-02-19T21:43:54.627Z,9.10
2024-02-19T21:44:54.664Z,9.14
2024-02-19T21:45:54.769Z,9.14
2024-02-19T21:46:54.596Z,9.15
2024-02-19T21:47:54.705Z,9.11
2024-02-19T21:48:54.711Z,9.14
2024-02-19T21:49:54.631Z,9.14
2024-02-19T21:50:54.552Z,9.16
2024-02-19T21:51:54.539Z,9.18
2024-02-19T21:52:54.650Z,9.15
2024-02-19T21:53:54.634Z,9.18
2024-02-19T21:54:54.656Z,9.18
2024-02-19T21:55:54.481Z,9.16
2024-02-19T21:56:54.461Z,9.18
2024-02-19T21:57:54.518Z,9.18
2024-02-19T21:58:54.564Z,9.18
2024-02-19T21:59:54.496Z,9.16
2024-02-19T22:00:54.449Z,9.14
2024-02-19T22:01:54.539Z,9.15
2024-02-19T22:02:54.397Z,9.14
2024-02-19T22:03:54.734Z,9.15
2024-02-19T22:04:54.508Z,9.14
2024-02-19T22:05:54.391Z,9.11
2024-02-19T22:06:54.384Z,9.11
2024-02-19T22:07:54.385Z,9.11
2024-02-19T22:08:54.427Z,9.14
2024-02-19T22:09:54.356Z,9.11
2024-02-19T22:10:54.477Z,9.14
2024-02-19T22:11:54.305Z,9.11
2024-02-19T22:12:54.350Z,9.14
2024-02-19T22:13:54.288Z,9.11
2024-02-19T22:14:54.285Z,9.11
2024-02-19T22:15:54.314Z,9.14
2024-02-19T22:16:54.270Z,9.14
2024-02-19T22:17:54.347Z,9.14
2024-02-19T22:18:54.268Z,9.14
2024-02-19T22:19:54.398Z,9.15
2024-02-19T22:20:54.239Z,9.14
2024-02-19T22:21:56.752Z,9.14
2024-02-19T22:22:54.244Z,9.11
2024-02-19T22:23:54.208Z,9.14
2024-02-19T22:24:54.215Z,9.14
2024-02-19T22:25:54.189Z,9.16
2024-02-19T22:26:54.201Z,9.15
2024-02-19T22:27:54.340Z,9.15
2024-02-19T22:28:54.121Z,9.16
2024-02-19T22:29:54.145Z,9.18
2024-02-19T22:30:54.149Z,9.18
2024-02-19T22:31:54.082Z,9.22
2024-02-19T22:32:54.149Z,9.22